KBGD/BGD METAR and TAF weather

Enter ICAO airport designator
Station Type Date Time Source
KBGD METAR 2020/12/05 05:51 UTC NOAA

KBGD 050551Z AUTO 25008KT 10SM CLR 02/M04 A3026 RMK AO2 SLP246 T00221039 10100 20022 401501022 51009


Station Type Date Time Source
KBGD Decoded METAR 2020/12/05 05:51 UTC NOAA

BORGER HUTCHINSON CO AIRPORT , TX, United States (KBGD) 35-42N 101-24W 927M
Dec 05, 2020 - 12:51 AM EST / 2020.12.05 0551 UTC
Wind: from the WSW (250 degrees) at 9 MPH (8 KT):0
Visibility: 10 mile(s):0
Sky conditions: clear
Temperature: 36.0 F (2.2 C)
Dew Point: 25.0 F (-3.9 C)
Relative Humidity: 63%
Pressure (altimeter): 30.26 in. Hg (1024 hPa)
Pressure tendency: 0.03 inches (0.9 hPa) higher than three hours ago
ob: KBGD 050551Z AUTO 25008KT 10SM CLR 02/M04 A3026 RMK AO2 SLP246 T00221039 10100 20022 401501022 51009
cycle: 6

Station Type Date Time Source
KBGD TAF UTC NOAA

Error!

Example: see airport list